createdAt,value
2019-06-15T00:01:49.356Z,23.50
2019-06-15T00:04:19.284Z,23.50
2019-06-15T00:06:49.078Z,23.50
2019-06-15T00:09:18.988Z,23.50
2019-06-15T00:11:48.818Z,23.40
2019-06-15T00:14:18.706Z,23.40
2019-06-15T00:16:48.528Z,23.40
2019-06-15T00:19:18.327Z,23.30
2019-06-15T00:21:48.138Z,23.30
2019-06-15T00:24:17.970Z,23.30
2019-06-15T00:26:47.786Z,23.20
2019-06-15T00:29:17.559Z,23.10
2019-06-15T00:31:47.380Z,23.10
2019-06-15T00:34:17.179Z,23.10
2019-06-15T00:36:47.249Z,23.00
2019-06-15T00:39:16.996Z,23.00
2019-06-15T00:41:46.769Z,22.90
2019-06-15T00:44:16.534Z,22.80
2019-06-15T00:46:46.363Z,22.70
2019-06-15T00:49:16.196Z,22.70
2019-06-15T00:51:45.978Z,22.70
2019-06-15T00:54:15.789Z,22.70
2019-06-15T00:56:45.643Z,22.60
2019-06-15T00:59:15.590Z,22.60
2019-06-15T01:01:45.516Z,22.60
2019-06-15T01:04:15.336Z,22.60
2019-06-15T01:06:45.254Z,22.50
2019-06-15T01:09:15.035Z,22.50
2019-06-15T01:11:45.122Z,22.50
2019-06-15T01:14:15.071Z,22.40
2019-06-15T01:16:45.111Z,22.40
2019-06-15T01:19:15.171Z,22.40
2019-06-15T01:21:44.965Z,22.30
2019-06-15T01:24:14.765Z,22.30
2019-06-15T01:26:44.594Z,22.30
2019-06-15T01:29:14.372Z,22.20
2019-06-15T01:31:44.197Z,22.10
2019-06-15T01:34:13.854Z,22.10
2019-06-15T01:36:43.626Z,22.00
2019-06-15T01:39:13.415Z,22.00
2019-06-15T01:41:43.276Z,22.00
2019-06-15T01:44:12.926Z,22.00
2019-06-15T01:46:42.748Z,22.00
2019-06-15T01:49:12.586Z,22.00
2019-06-15T01:51:42.392Z,22.00
2019-06-15T01:54:12.196Z,22.00
2019-06-15T01:56:42.044Z,21.90
2019-06-15T01:59:11.822Z,21.80
2019-06-15T02:01:41.643Z,21.80
2019-06-15T02:04:11.480Z,21.80
2019-06-15T02:06:41.260Z,21.70
2019-06-15T02:09:11.275Z,21.70
2019-06-15T02:11:41.185Z,21.60
2019-06-15T02:14:11.006Z,21.70
2019-06-15T02:16:40.778Z,21.70
2019-06-15T02:19:10.530Z,21.60
2019-06-15T02:21:40.430Z,21.60
2019-06-15T02:24:10.267Z,21.50
2019-06-15T02:26:40.163Z,21.40
2019-06-15T02:29:10.069Z,21.30
2019-06-15T02:31:40.102Z,21.20
2019-06-15T02:34:09.913Z,21.20
2019-06-15T02:36:39.798Z,21.20
2019-06-15T02:39:09.609Z,21.20
2019-06-15T02:41:39.578Z,21.10
2019-06-15T02:44:09.531Z,21.10
2019-06-15T02:46:40.122Z,21.10
2019-06-15T02:49:09.899Z,21.10
2019-06-15T02:51:39.918Z,21.10
2019-06-15T02:54:09.743Z,21.10
2019-06-15T02:56:39.649Z,21.20
2019-06-15T02:59:09.487Z,21.10
2019-06-15T03:01:39.259Z,21.10
2019-06-15T03:04:09.089Z,21.00
2019-06-15T03:06:39.303Z,21.00
2019-06-15T03:09:09.171Z,21.00
2019-06-15T03:11:39.149Z,21.00
2019-06-15T03:14:08.923Z,21.00
2019-06-15T03:16:38.743Z,20.90
2019-06-15T03:19:08.557Z,20.90
2019-06-15T03:21:38.379Z,20.90
2019-06-15T03:24:08.279Z,20.90
2019-06-15T03:26:38.341Z,20.80
2019-06-15T03:29:08.106Z,20.80
2019-06-15T03:31:37.916Z,20.80
2019-06-15T03:34:07.642Z,20.80
2019-06-15T03:36:37.444Z,20.70
2019-06-15T03:39:08.200Z,20.70
2019-06-15T03:41:38.012Z,20.70
2019-06-15T03:44:07.897Z,20.60
2019-06-15T03:46:37.815Z,20.60
2019-06-15T03:49:07.769Z,20.50
2019-06-15T03:51:37.522Z,20.50
2019-06-15T03:54:07.444Z,20.50
2019-06-15T03:56:37.286Z,20.50
2019-06-15T03:59:07.165Z,20.50
2019-06-15T04:01:42.665Z,20.50
2019-06-15T04:04:12.520Z,20.50
2019-06-15T04:06:42.355Z,20.50
2019-06-15T04:09:12.190Z,20.50
2019-06-15T04:11:41.963Z,20.50
2019-06-15T04:14:11.796Z,20.50
2019-06-15T04:16:41.615Z,20.50
2019-06-15T04:19:11.389Z,20.50
2019-06-15T04:21:41.220Z,20.50
2019-06-15T04:24:11.062Z,20.50
2019-06-15T04:26:40.848Z,20.50
2019-06-15T04:29:10.675Z,20.50
2019-06-15T04:31:40.510Z,20.50
2019-06-15T04:34:10.467Z,20.40
2019-06-15T04:36:40.279Z,20.40
2019-06-15T04:39:10.162Z,20.40
2019-06-15T04:41:39.899Z,20.30
2019-06-15T04:44:09.732Z,20.30
2019-06-15T04:46:39.587Z,20.30
2019-06-15T04:49:09.396Z,20.30
2019-06-15T04:51:39.187Z,20.20
2019-06-15T04:54:09.007Z,20.20
2019-06-15T04:56:50.271Z,20.20
2019-06-15T04:59:10.227Z,20.10
2019-06-15T05:01:40.080Z,20.10
2019-06-15T05:04:10.052Z,20.00
2019-06-15T05:06:39.899Z,20.00
2019-06-15T05:09:09.708Z,20.00
2019-06-15T05:11:39.487Z,20.00
2019-06-15T05:14:09.283Z,19.90
2019-06-15T05:16:39.055Z,19.90
2019-06-15T05:19:08.829Z,19.90
2019-06-15T05:21:38.651Z,19.90
2019-06-15T05:24:08.742Z,20.00
2019-06-15T05:26:38.694Z,20.00
2019-06-15T05:29:08.327Z,20.10
2019-06-15T05:31:38.121Z,20.10
2019-06-15T05:34:08.160Z,20.10
2019-06-15T05:36:38.111Z,20.10
2019-06-15T05:39:08.072Z,20.20
2019-06-15T05:41:38.307Z,20.20
2019-06-15T05:44:08.284Z,20.20
2019-06-15T05:46:38.220Z,20.20
2019-06-15T05:49:08.433Z,20.30
2019-06-15T05:51:38.353Z,20.30
2019-06-15T05:54:08.123Z,20.30
2019-06-15T05:56:37.954Z,20.40
2019-06-15T05:59:07.868Z,20.40
2019-06-15T06:01:38.404Z,20.50
2019-06-15T06:04:08.303Z,20.40
2019-06-15T06:06:38.119Z,20.40
2019-06-15T06:09:08.566Z,20.40
2019-06-15T06:11:38.503Z,20.40
2019-06-15T06:14:08.280Z,20.40
2019-06-15T06:16:38.127Z,20.40
2019-06-15T06:19:07.925Z,20.50
2019-06-15T06:21:37.608Z,20.50
2019-06-15T06:24:07.572Z,20.50
2019-06-15T06:26:37.375Z,20.50
2019-06-15T06:29:07.251Z,20.50
2019-06-15T06:31:37.100Z,20.50
2019-06-15T06:34:06.879Z,20.60
2019-06-15T06:36:44.056Z,20.60
2019-06-15T06:39:13.852Z,20.60
2019-06-15T06:41:43.685Z,20.70
2019-06-15T06:44:15.272Z,20.80
2019-06-15T06:46:45.171Z,20.80
2019-06-15T06:49:15.076Z,20.80
2019-06-15T06:51:46.372Z,20.80
2019-06-15T06:54:16.229Z,20.90
2019-06-15T06:56:46.131Z,21.00
2019-06-15T06:59:16.059Z,21.00
2019-06-15T07:01:45.874Z,21.00
2019-06-15T07:04:15.685Z,21.10
2019-06-15T07:06:45.737Z,21.10
2019-06-15T07:09:15.592Z,21.10
2019-06-15T07:11:45.616Z,21.20
2019-06-15T07:14:15.777Z,21.20
2019-06-15T07:16:45.756Z,21.20
2019-06-15T07:19:15.455Z,21.30
2019-06-15T07:21:45.329Z,21.30
2019-06-15T07:24:15.155Z,21.40
2019-06-15T07:26:45.011Z,21.40
2019-06-15T07:29:15.163Z,21.40
2019-06-15T07:31:45.058Z,21.50
2019-06-15T07:34:14.868Z,21.50
2019-06-15T07:36:44.876Z,21.50
2019-06-15T07:39:14.634Z,21.60
2019-06-15T07:41:44.274Z,21.60
2019-06-15T07:44:14.221Z,21.70
2019-06-15T07:46:44.117Z,21.70
2019-06-15T07:49:13.943Z,21.70
2019-06-15T07:51:43.887Z,21.70
2019-06-15T07:54:13.969Z,21.70
2019-06-15T07:56:43.770Z,21.80
2019-06-15T07:59:13.810Z,21.80
2019-06-15T08:01:43.704Z,21.80
2019-06-15T08:04:13.497Z,21.80
2019-06-15T08:06:43.357Z,21.90
2019-06-15T08:09:13.234Z,21.90
2019-06-15T08:11:45.844Z,21.90
2019-06-15T08:14:15.142Z,21.90
2019-06-15T08:16:44.948Z,21.90
2019-06-15T08:19:14.787Z,21.90
2019-06-15T08:21:44.475Z,22.00
2019-06-15T08:24:14.460Z,22.00
2019-06-15T08:26:44.911Z,22.00
2019-06-15T08:29:14.819Z,22.00
2019-06-15T08:31:44.520Z,22.00
2019-06-15T08:34:14.412Z,22.10
2019-06-15T08:36:44.274Z,22.10
2019-06-15T08:39:14.302Z,22.20
2019-06-15T08:41:44.178Z,22.20
2019-06-15T08:44:15.852Z,22.20
2019-06-15T08:46:45.945Z,22.30
2019-06-15T08:49:15.936Z,22.30
2019-06-15T08:51:45.780Z,22.40
2019-06-15T08:54:15.780Z,22.50
2019-06-15T08:56:45.677Z,22.50
2019-06-15T08:59:15.290Z,22.60
2019-06-15T09:01:44.927Z,22.60
2019-06-15T09:04:14.517Z,22.60
2019-06-15T09:06:44.219Z,22.70
2019-06-15T09:09:16.036Z,22.70
2019-06-15T09:11:45.584Z,22.80
2019-06-15T09:14:15.694Z,22.80
2019-06-15T09:16:45.823Z,22.90
2019-06-15T09:19:15.792Z,22.90
2019-06-15T09:21:45.888Z,22.90
2019-06-15T09:24:15.850Z,22.90
2019-06-15T09:26:46.428Z,22.90
2019-06-15T09:29:16.498Z,23.00
2019-06-15T09:31:46.487Z,23.00
2019-06-15T09:34:19.229Z,23.10
2019-06-15T09:36:48.138Z,23.10
2019-06-15T09:39:18.142Z,23.10
2019-06-15T09:41:48.067Z,23.20
2019-06-15T09:44:18.097Z,23.20
2019-06-15T09:46:47.963Z,23.30
2019-06-15T09:49:17.770Z,23.30
2019-06-15T09:51:47.611Z,23.30
2019-06-15T09:54:17.549Z,23.40
2019-06-15T09:56:47.520Z,23.50
2019-06-15T09:59:25.511Z,23.50
2019-06-15T10:01:48.808Z,23.50
2019-06-15T10:04:18.582Z,23.60
2019-06-15T10:06:48.463Z,23.70
2019-06-15T10:09:18.294Z,23.80
2019-06-15T10:11:49.910Z,23.90
2019-06-15T10:14:19.948Z,23.90
2019-06-15T10:16:49.935Z,24.10
2019-06-15T10:19:19.836Z,24.10
2019-06-15T10:21:49.695Z,24.20
2019-06-15T10:24:19.548Z,24.30
2019-06-15T10:26:49.455Z,24.30
2019-06-15T10:29:19.187Z,24.40
2019-06-15T10:31:49.107Z,24.50
2019-06-15T10:34:18.973Z,24.60
2019-06-15T10:36:48.931Z,24.70
2019-06-15T10:39:18.718Z,24.80
2019-06-15T10:41:48.545Z,24.90
2019-06-15T10:44:18.567Z,25.00
2019-06-15T10:46:48.277Z,25.00
2019-06-15T10:49:18.388Z,25.10
2019-06-15T10:51:49.622Z,25.20
2019-06-15T10:54:19.467Z,25.30
2019-06-15T10:56:49.366Z,25.40
2019-06-15T10:59:20.069Z,25.40
2019-06-15T11:01:49.902Z,25.50
2019-06-15T11:04:19.784Z,25.60
2019-06-15T11:06:49.947Z,25.70
2019-06-15T11:09:19.864Z,25.70
2019-06-15T11:11:49.964Z,25.80
2019-06-15T11:14:19.830Z,25.80
2019-06-15T11:16:50.504Z,25.90
2019-06-15T11:19:20.312Z,25.90
2019-06-15T11:21:50.354Z,25.90
2019-06-15T11:24:20.174Z,25.90
2019-06-15T11:26:50.071Z,26.00
2019-06-15T11:29:20.112Z,26.10
2019-06-15T11:31:50.105Z,26.20
2019-06-15T11:34:20.031Z,26.20
2019-06-15T11:36:49.846Z,26.30
2019-06-15T11:39:19.884Z,26.40
2019-06-15T11:41:49.794Z,26.40
2019-06-15T11:44:19.689Z,26.40
2019-06-15T11:46:49.684Z,26.50
2019-06-15T11:49:19.625Z,26.50
2019-06-15T11:51:49.559Z,26.50
2019-06-15T11:54:19.345Z,26.60
2019-06-15T11:56:49.155Z,26.70
2019-06-15T11:59:19.318Z,26.80
2019-06-15T12:01:49.257Z,26.90
2019-06-15T12:04:19.178Z,27.00
2019-06-15T12:06:49.013Z,27.00
2019-06-15T12:09:18.911Z,27.10
2019-06-15T12:11:48.818Z,27.10
2019-06-15T12:14:18.680Z,27.10
2019-06-15T12:16:48.678Z,27.20
2019-06-15T12:19:18.595Z,27.20
2019-06-15T12:21:48.648Z,27.20
2019-06-15T12:24:18.640Z,27.20
2019-06-15T12:26:48.557Z,27.20
2019-06-15T12:29:18.376Z,27.20
2019-06-15T12:31:48.123Z,27.20
2019-06-15T12:34:21.033Z,27.20
2019-06-15T12:36:49.429Z,27.30
2019-06-15T12:39:19.358Z,27.30
2019-06-15T12:41:49.373Z,27.40
2019-06-15T12:44:19.241Z,27.40
2019-06-15T12:46:49.303Z,27.50
2019-06-15T12:49:19.164Z,27.50
2019-06-15T12:51:49.007Z,27.70
2019-06-15T12:54:18.939Z,27.90
2019-06-15T12:56:48.726Z,28.10
2019-06-15T12:59:18.536Z,28.20
2019-06-15T13:01:48.315Z,28.30
2019-06-15T13:04:18.018Z,28.30
2019-06-15T13:06:47.888Z,28.40
2019-06-15T13:09:17.687Z,28.50
2019-06-15T13:11:47.468Z,28.60
2019-06-15T13:14:17.300Z,28.70
2019-06-15T13:16:48.109Z,28.90
2019-06-15T13:19:18.024Z,29.00
2019-06-15T13:21:47.905Z,29.10
2019-06-15T13:24:17.646Z,29.20
2019-06-15T13:26:47.829Z,29.20
2019-06-15T13:29:17.734Z,29.30
2019-06-15T13:31:47.616Z,29.50
2019-06-15T13:34:17.523Z,29.60
2019-06-15T13:36:47.455Z,29.70
2019-06-15T13:39:17.284Z,29.80
2019-06-15T13:41:47.182Z,29.90
2019-06-15T13:44:16.980Z,29.90
2019-06-15T13:46:46.994Z,30.00
2019-06-15T13:49:16.766Z,30.00
2019-06-15T13:51:46.645Z,30.10
2019-06-15T13:54:16.571Z,30.20
2019-06-15T13:56:46.559Z,30.20
2019-06-15T13:59:16.383Z,30.30
2019-06-15T14:01:46.178Z,30.40
2019-06-15T14:04:16.240Z,30.30
2019-06-15T14:06:46.023Z,30.30
2019-06-15T14:09:16.044Z,30.20
2019-06-15T14:11:45.891Z,30.30
2019-06-15T14:14:15.895Z,30.20
2019-06-15T14:16:45.669Z,30.20
2019-06-15T14:19:15.689Z,30.30
2019-06-15T14:21:45.424Z,30.40
2019-06-15T14:24:15.210Z,30.40
2019-06-15T14:26:44.996Z,30.40
2019-06-15T14:29:17.447Z,30.40
2019-06-15T14:31:50.098Z,30.40
2019-06-15T14:34:17.794Z,30.60
2019-06-15T14:36:47.858Z,30.50
2019-06-15T14:39:17.972Z,30.60
2019-06-15T14:41:50.945Z,30.70
2019-06-15T14:44:19.357Z,30.80
2019-06-15T14:46:49.136Z,30.80
2019-06-15T14:49:18.916Z,31.00
2019-06-15T14:51:50.964Z,31.00
2019-06-15T14:54:20.209Z,31.00
2019-06-15T14:56:50.125Z,31.20
2019-06-15T14:59:20.075Z,31.20
2019-06-15T15:01:57.289Z,31.20
2019-06-15T15:04:21.518Z,31.20
2019-06-15T15:06:51.299Z,31.20
2019-06-15T15:09:21.217Z,31.30
2019-06-15T15:11:51.130Z,31.30
2019-06-15T15:14:21.189Z,31.40
2019-06-15T15:16:50.965Z,31.30
2019-06-15T15:19:20.775Z,31.40
2019-06-15T15:21:50.720Z,31.40
2019-06-15T15:24:20.617Z,31.40
2019-06-15T15:26:50.719Z,31.40
2019-06-15T15:29:20.576Z,31.40
2019-06-15T15:31:50.487Z,31.50
2019-06-15T15:34:20.385Z,31.60
2019-06-15T15:36:50.296Z,31.60
2019-06-15T15:39:20.285Z,31.60
2019-06-15T15:41:50.215Z,31.70
2019-06-15T15:44:20.164Z,31.70
2019-06-15T15:46:50.174Z,31.80
2019-06-15T15:49:20.037Z,31.80
2019-06-15T15:51:49.920Z,31.80
2019-06-15T15:54:19.913Z,31.80
2019-06-15T15:56:49.686Z,31.80
2019-06-15T15:59:19.511Z,31.80
2019-06-15T16:01:49.443Z,31.90
2019-06-15T16:04:19.311Z,31.90
2019-06-15T16:06:49.342Z,31.90
2019-06-15T16:09:19.161Z,32.00
2019-06-15T16:11:49.011Z,32.00
2019-06-15T16:14:19.058Z,32.00
2019-06-15T16:16:48.796Z,31.90
2019-06-15T16:19:18.956Z,31.90
2019-06-15T16:21:48.741Z,31.90
2019-06-15T16:24:18.557Z,31.90
2019-06-15T16:26:48.517Z,31.80
2019-06-15T16:29:18.404Z,31.80
2019-06-15T16:31:48.177Z,31.80
2019-06-15T16:34:17.979Z,31.80
2019-06-15T16:36:47.845Z,31.70
2019-06-15T16:39:17.742Z,31.80
2019-06-15T16:41:47.556Z,31.70
2019-06-15T16:44:17.530Z,31.70
2019-06-15T16:46:47.398Z,31.70
2019-06-15T16:49:20.626Z,31.70
2019-06-15T16:51:48.638Z,31.70
2019-06-15T16:54:18.624Z,31.60
2019-06-15T16:56:48.445Z,31.60
2019-06-15T16:59:18.419Z,31.60
2019-06-15T17:01:48.187Z,31.60
2019-06-15T17:04:18.068Z,31.60
2019-06-15T17:06:48.024Z,31.50
2019-06-15T17:09:18.031Z,31.50
2019-06-15T17:11:48.229Z,31.40
2019-06-15T17:14:18.250Z,31.40
2019-06-15T17:16:48.087Z,31.40
2019-06-15T17:19:17.867Z,31.40
2019-06-15T17:21:47.714Z,31.40
2019-06-15T17:24:17.834Z,31.30
2019-06-15T17:26:47.721Z,31.30
2019-06-15T17:29:17.671Z,31.30
2019-06-15T17:31:47.474Z,31.20
2019-06-15T17:34:17.366Z,31.20
2019-06-15T17:36:48.047Z,31.20
2019-06-15T17:39:17.660Z,31.20
2019-06-15T17:41:47.464Z,31.10
2019-06-15T17:44:17.359Z,31.10
2019-06-15T17:46:47.332Z,31.00
2019-06-15T17:49:17.934Z,30.90
2019-06-15T17:51:47.789Z,30.90
2019-06-15T17:54:17.799Z,30.80
2019-06-15T17:56:47.615Z,30.80
2019-06-15T17:59:17.453Z,30.80
2019-06-15T18:01:47.549Z,30.70
2019-06-15T18:04:17.355Z,30.70
2019-06-15T18:06:47.281Z,30.60
2019-06-15T18:09:17.439Z,30.50
2019-06-15T18:11:47.338Z,30.50
2019-06-15T18:14:17.673Z,30.40
2019-06-15T18:16:47.755Z,30.40
2019-06-15T18:19:17.666Z,30.40
2019-06-15T18:21:47.519Z,30.30
2019-06-15T18:24:17.314Z,30.30
2019-06-15T18:26:47.534Z,30.20
2019-06-15T18:29:17.358Z,30.20
2019-06-15T18:31:47.335Z,30.10
2019-06-15T18:34:17.248Z,30.10
2019-06-15T18:36:47.166Z,30.00
2019-06-15T18:39:18.154Z,30.00
2019-06-15T18:41:48.378Z,30.00
2019-06-15T18:44:18.127Z,29.90
2019-06-15T18:46:48.164Z,29.80
2019-06-15T18:49:17.979Z,29.80
2019-06-15T18:51:47.825Z,29.70
2019-06-15T18:54:17.575Z,29.60
2019-06-15T18:56:47.507Z,29.60
2019-06-15T18:59:17.470Z,29.60
2019-06-15T19:01:47.348Z,29.50
2019-06-15T19:04:30.107Z,29.50
2019-06-15T19:06:48.980Z,29.40
2019-06-15T19:09:19.167Z,29.40
2019-06-15T19:11:49.038Z,29.30
2019-06-15T19:14:18.877Z,29.30
2019-06-15T19:16:48.651Z,29.30
2019-06-15T19:19:18.584Z,29.20
2019-06-15T19:21:48.524Z,29.20
2019-06-15T19:24:18.391Z,29.10
2019-06-15T19:26:48.351Z,29.10
2019-06-15T19:29:18.246Z,29.00
2019-06-15T19:31:48.244Z,28.90
2019-06-15T19:34:18.136Z,28.90
2019-06-15T19:36:48.091Z,28.80
2019-06-15T19:39:17.890Z,28.80
2019-06-15T19:41:47.933Z,28.70
2019-06-15T19:44:17.744Z,28.70
2019-06-15T19:46:47.840Z,28.70
2019-06-15T19:49:17.817Z,28.70
2019-06-15T19:51:47.675Z,28.60
2019-06-15T19:54:17.791Z,28.50
2019-06-15T19:56:47.635Z,28.40
2019-06-15T19:59:17.556Z,28.40
2019-06-15T20:01:47.762Z,28.30
2019-06-15T20:04:17.516Z,28.30
2019-06-15T20:06:47.572Z,28.30
2019-06-15T20:09:17.495Z,28.20
2019-06-15T20:11:47.238Z,28.10
2019-06-15T20:14:17.102Z,28.10
2019-06-15T20:16:47.068Z,28.00
2019-06-15T20:19:17.640Z,28.00
2019-06-15T20:21:47.480Z,27.90
2019-06-15T20:24:19.231Z,27.90
2019-06-15T20:26:48.714Z,27.90
2019-06-15T20:29:18.528Z,27.90
2019-06-15T20:31:48.292Z,27.80
2019-06-15T20:34:18.262Z,27.80
2019-06-15T20:36:48.171Z,27.70
2019-06-15T20:39:17.905Z,27.70
2019-06-15T20:41:47.679Z,27.60
2019-06-15T20:44:17.498Z,27.60
2019-06-15T20:46:47.314Z,27.60
2019-06-15T20:49:17.114Z,27.50
2019-06-15T20:51:47.100Z,27.50
2019-06-15T20:54:19.028Z,27.40
2019-06-15T20:56:49.016Z,27.30
2019-06-15T20:59:18.706Z,27.20
2019-06-15T21:01:48.332Z,27.10
2019-06-15T21:04:18.266Z,27.10
2019-06-15T21:06:48.203Z,27.00
2019-06-15T21:09:18.777Z,27.00
2019-06-15T21:11:48.667Z,26.90
2019-06-15T21:14:18.642Z,26.80
2019-06-15T21:16:48.459Z,26.60
2019-06-15T21:19:18.419Z,26.60
2019-06-15T21:21:48.396Z,26.50
2019-06-15T21:24:18.271Z,26.50
2019-06-15T21:26:48.189Z,26.50
2019-06-15T21:29:18.127Z,26.40
2019-06-15T21:31:47.915Z,26.30
2019-06-15T21:34:17.811Z,26.30
2019-06-15T21:36:47.854Z,26.20
2019-06-15T21:39:17.868Z,26.10
2019-06-15T21:41:47.880Z,26.00
2019-06-15T21:44:17.778Z,25.90
2019-06-15T21:46:47.708Z,25.90
2019-06-15T21:49:17.477Z,25.90
2019-06-15T21:51:47.555Z,25.80
2019-06-15T21:54:17.314Z,25.80
2019-06-15T21:56:47.346Z,25.70
2019-06-15T21:59:17.276Z,25.70
2019-06-15T22:01:47.319Z,25.60
2019-06-15T22:04:17.338Z,25.60
2019-06-15T22:06:47.810Z,25.60
2019-06-15T22:09:20.961Z,25.50
2019-06-15T22:11:49.286Z,25.40
2019-06-15T22:14:19.202Z,25.40
2019-06-15T22:16:49.019Z,25.30
2019-06-15T22:19:18.815Z,25.20
2019-06-15T22:21:48.660Z,25.00
2019-06-15T22:24:18.559Z,25.00
2019-06-15T22:26:48.367Z,25.00
2019-06-15T22:29:18.531Z,25.00
2019-06-15T22:31:48.482Z,25.00
2019-06-15T22:34:18.376Z,25.00
2019-06-15T22:36:48.173Z,24.90
2019-06-15T22:39:18.134Z,24.90
2019-06-15T22:41:48.167Z,24.90
2019-06-15T22:44:18.010Z,24.90
2019-06-15T22:46:47.902Z,24.80
2019-06-15T22:49:17.803Z,24.80
2019-06-15T22:51:47.749Z,24.80
2019-06-15T22:54:17.516Z,24.80
2019-06-15T22:56:47.444Z,24.70
2019-06-15T22:59:17.267Z,24.70
2019-06-15T23:01:47.103Z,24.60
2019-06-15T23:04:17.237Z,24.60
2019-06-15T23:06:48.274Z,24.60
2019-06-15T23:09:18.339Z,24.50
2019-06-15T23:11:48.126Z,24.40
2019-06-15T23:14:18.209Z,24.40
2019-06-15T23:16:48.099Z,24.30
2019-06-15T23:19:18.322Z,24.30
2019-06-15T23:21:48.258Z,24.20
2019-06-15T23:24:18.036Z,24.10
2019-06-15T23:26:48.028Z,24.10
2019-06-15T23:29:18.102Z,24.00
2019-06-15T23:31:47.987Z,24.00
2019-06-15T23:34:17.779Z,23.90
2019-06-15T23:36:56.711Z,23.90
2019-06-15T23:39:20.748Z,23.90
2019-06-15T23:41:50.643Z,23.80
2019-06-15T23:44:20.427Z,23.70
2019-06-15T23:46:50.100Z,23.60
2019-06-15T23:49:20.033Z,23.60
2019-06-15T23:51:49.893Z,23.60
2019-06-15T23:54:19.864Z,23.60
2019-06-15T23:56:49.678Z,23.50
2019-06-15T23:59:19.503Z,23.50
